Time;durP1;ratioP1;P1;durP2;ratioP2;P2;SDS_P1;SDS_P2;PMS_P1;PMS_P2;Temp;Humidity;BMP_temperature;BMP_pressure;BME280_temperature;BME280_humidity;BME280_pressure;Samples;Min_cycle;Max_cycle;Signal;HPM_P1;HPM_P2
2022/07/03 00:00:27;;;;;;;5.90;4.00;;;;;;101214.50;;;;104426;1310;33375;-36
2022/07/03 00:03:08;;;;;;;5.30;3.40;;;;;;101213.70;;;;104377;1314;35597;-36
2022/07/03 00:05:41;;;;;;;5.10;3.60;;;;;;101212.05;;;;104425;1316;35302;-36
2022/07/03 00:08:12;;;;;;;;;;;;;;101213.86;;;;104458;1312;33951;-37
2022/07/03 00:10:44;;;;;;;5.20;3.30;;;;;;101213.17;;;;104438;1313;34946;-36
2022/07/03 00:13:17;;;;;;;6.10;3.60;;;;;;101211.39;;;;104415;1316;35280;-36
2022/07/03 00:15:49;;;;;;;6.40;3.90;;;;;;101206.33;;;;104414;1316;35169;-36
2022/07/03 00:18:21;;;;;;;5.10;3.60;;;;;;101200.22;;;;104421;1310;34083;-36
2022/07/03 00:21:01;;;;;;;5.00;3.20;;;;;;101200.85;;;;104412;1310;33423;-36
2022/07/03 00:23:41;;;;;;;5.70;3.60;;;;;;101205.83;;;;104457;1316;35679;-36
2022/07/03 00:26:15;;;;;;;4.90;3.50;;;;;;101205.63;;;;104420;1316;33667;-36
2022/07/03 00:28:47;;;;;;;5.70;3.60;;;;;;101202.45;;;;104441;1313;33540;-36
2022/07/03 00:31:20;;;;;;;5.20;3.40;;;;;;101203.50;;;;104405;1316;35574;-36
2022/07/03 00:33:53;;;;;;;6.40;3.90;;;;;;101204.42;;;;104407;1315;34461;-36
2022/07/03 00:36:26;;;;;;;4.90;3.50;;;;;;101204.23;;;;104419;1314;35183;-36
2022/07/03 00:38:58;;;;;;;5.50;3.40;;;;;;101207.23;;;;104418;1313;34162;-36
2022/07/03 00:41:33;;;;;;;5.00;3.50;;;;;;101205.91;;;;104426;1316;33960;-36
2022/07/03 00:44:07;;;;;;;5.10;3.20;;;;;;101206.54;;;;104396;1313;34622;-36
2022/07/03 00:46:40;;;;;;;;;;;;;;101209.81;;;;104453;1314;34408;-36
2022/07/03 00:49:13;;;;;;;5.70;3.80;;;;;;101204.98;;;;104419;1316;34868;-36
2022/07/03 00:51:45;;;;;;;5.10;3.90;;;;;;101201.90;;;;104399;1314;35087;-36
2022/07/03 00:54:19;;;;;;;4.60;3.60;;;;;;101199.84;;;;104407;1316;33908;-36
2022/07/03 00:56:56;;;;;;;5.90;3.50;;;;;;101199.38;;;;104427;1314;34613;-36
2022/07/03 00:59:29;;;;;;;5.40;3.80;;;;;;101197.69;;;;104402;1316;35378;-36
2022/07/03 01:02:08;;;;;;;4.80;3.70;;;;;;101196.69;;;;104393;1316;35364;-36
2022/07/03 01:04:50;;;;;;;5.30;3.70;;;;;;101193.64;;;;104426;1314;35736;-36
2022/07/03 01:07:39;;;;;;;4.60;3.60;;;;;;101188.80;;;;104419;1313;33404;-36
2022/07/03 01:10:17;;;;;;;6.00;3.70;;;;;;101188.92;;;;104402;1314;34422;-36
2022/07/03 01:13:02;;;;;;;4.60;3.50;;;;;;101187.41;;;;104410;1312;35083;-36
2022/07/03 01:15:46;;;;;;;4.80;3.60;;;;;;101183.67;;;;104440;1313;34369;-36
2022/07/03 01:18:36;;;;;;;5.20;3.50;;;;;;101182.45;;;;104433;1316;33685;-36
2022/07/03 01:21:18;;;;;;;5.50;3.60;;;;;;101178.92;;;;104410;1313;35182;-36
2022/07/03 01:24:44;;;;;;;4.80;3.60;;;;;;101178.84;;;;104432;1313;33540;-36
2022/07/03 01:27:23;;;;;;;6.10;3.80;;;;;;101177.04;;;;104409;1315;33397;-36
2022/07/03 01:30:05;;;;;;;5.80;3.50;;;;;;101173.86;;;;104418;1316;34306;-36
2022/07/03 01:32:44;;;;;;;4.90;3.40;;;;;;101173.72;;;;104401;1312;35313;-36
2022/07/03 01:35:24;;;;;;;6.80;3.70;;;;;;101172.20;;;;104449;1310;34361;-36
2022/07/03 01:37:57;;;;;;;5.80;3.40;;;;;;101170.60;;;;104461;1312;35703;-36
2022/07/03 01:40:30;;;;;;;4.90;3.70;;;;;;101168.37;;;;104412;1314;34347;-36
2022/07/03 01:43:04;;;;;;;6.00;3.80;;;;;;101170.02;;;;104415;1310;35426;-36
2022/07/03 01:45:43;;;;;;;5.30;3.80;;;;;;101165.17;;;;104414;1313;33510;-36
2022/07/03 01:48:16;;;;;;;6.20;4.20;;;;;;101159.01;;;;104416;1316;33485;-36
2022/07/03 01:50:49;;;;;;;5.70;3.80;;;;;;101158.60;;;;104403;1316;35192;-36
2022/07/03 01:53:22;;;;;;;6.60;4.00;;;;;;101157.81;;;;104437;1311;35122;-36
2022/07/03 01:55:57;;;;;;;5.10;3.90;;;;;;101157.55;;;;104429;1316;35666;-36
2022/07/03 01:58:30;;;;;;;6.00;3.80;;;;;;101157.34;;;;104430;1316;33830;-36
2022/07/03 02:01:04;;;;;;;;;;;;;;101159.89;;;;104430;1313;35099;-36
2022/07/03 02:03:40;;;;;;;4.90;3.60;;;;;;101155.45;;;;104424;1315;33353;-36
2022/07/03 02:06:19;;;;;;;5.80;3.90;;;;;;101152.80;;;;104418;1310;35207;-36
2022/07/03 02:09:02;;;;;;;5.90;3.90;;;;;;101151.51;;;;104426;1316;33644;-36
2022/07/03 02:11:39;;;;;;;4.90;3.80;;;;;;101150.50;;;;104441;1315;35352;-36
2022/07/03 02:14:17;;;;;;;6.80;4.10;;;;;;101150.23;;;;104399;1316;34526;-36
2022/07/03 02:17:12;;;;;;;6.10;3.90;;;;;;101152.30;;;;104416;1313;34488;-36
2022/07/03 02:19:53;;;;;;;5.00;3.70;;;;;;101151.91;;;;104430;1316;35207;-36
2022/07/03 02:22:33;;;;;;;5.50;3.60;;;;;;101155.30;;;;104437;1316;35659;-35
2022/07/03 02:25:10;;;;;;;5.00;3.70;;;;;;101156.69;;;;104423;1316;34355;-35
2022/07/03 02:27:49;;;;;;;5.50;4.10;;;;;;101153.75;;;;104446;1314;33545;-35
2022/07/03 02:30:21;;;;;;;6.10;3.80;;;;;;101154.98;;;;104425;1313;33742;-36
2022/07/03 02:32:54;;;;;;;6.20;3.50;;;;;;101156.32;;;;104439;1312;35230;-36
2022/07/03 02:35:28;;;;;;;;;;;;;;101154.95;;;;104432;1316;33555;-36
2022/07/03 02:38:07;;;;;;;5.20;3.90;;;;;;101158.11;;;;104407;1316;34817;-36
2022/07/03 02:40:47;;;;;;;5.00;3.70;;;;;;101159.00;;;;104437;1316;33752;-36
2022/07/03 02:43:28;;;;;;;5.30;3.90;;;;;;101158.38;;;;104409;1316;34881;-36
2022/07/03 02:46:48;;;;;;;5.40;3.50;;;;;;101161.02;;;;104419;1312;34961;-36
2022/07/03 02:49:21;;;;;;;7.50;3.70;;;;;;101164.41;;;;104407;1316;33347;-36
2022/07/03 02:52:02;;;;;;;5.00;4.00;;;;;;101163.19;;;;104451;1316;34529;-36
2022/07/03 02:54:40;;;;;;;5.50;3.60;;;;;;101161.64;;;;104439;1316;35144;-36
2022/07/03 02:57:14;;;;;;;7.20;3.50;;;;;;101157.95;;;;104420;1316;35255;-36
2022/07/03 02:59:57;;;;;;;4.90;3.60;;;;;;101154.84;;;;104446;1314;35227;-36
2022/07/03 03:02:54;;;;;;;;;;;;;;101156.05;;;;104453;1316;35622;-36
2022/07/03 03:05:31;;;;;;;4.90;3.70;;;;;;101160.21;;;;104429;1316;33113;-36
2022/07/03 03:08:25;;;;;;;4.90;3.20;;;;;;101163.48;;;;104433;1316;35196;-36
2022/07/03 03:11:04;;;;;;;4.80;3.30;;;;;;101157.61;;;;104425;1312;33972;-36
2022/07/03 03:13:38;;;;;;;4.40;3.20;;;;;;101155.09;;;;104457;1310;34405;-36
2022/07/03 03:16:12;;;;;;;8.70;4.60;;;;;;101150.86;;;;104384;1313;33864;-36
2022/07/03 03:18:44;;;;;;;4.60;3.00;;;;;;101148.27;;;;104413;1314;35597;-36
2022/07/03 03:21:26;;;;;;;5.60;2.90;;;;;;101145.98;;;;104431;1313;35347;-36
2022/07/03 03:23:59;;;;;;;4.60;2.70;;;;;;101140.12;;;;104446;1316;33723;-36
2022/07/03 03:26:31;;;;;;;4.80;2.90;;;;;;101134.52;;;;104428;1312;35624;-36
2022/07/03 03:29:04;;;;;;;5.20;2.90;;;;;;101135.33;;;;104432;1316;35359;-36
2022/07/03 03:31:36;;;;;;;4.10;2.90;;;;;;101137.23;;;;104400;1316;33571;-36
2022/07/03 03:34:12;;;;;;;5.30;2.50;;;;;;101135.95;;;;104441;1316;34590;-36
2022/07/03 03:36:44;;;;;;;5.50;2.90;;;;;;101133.33;;;;104445;1316;35184;-36
2022/07/03 03:39:19;;;;;;;5.50;2.70;;;;;;101132.70;;;;104429;1316;34254;-36
2022/07/03 03:41:52;;;;;;;4.90;2.90;;;;;;101130.64;;;;104420;1315;34542;-36
2022/07/03 03:44:24;;;;;;;3.90;2.20;;;;;;101126.44;;;;104387;1313;35217;-36
2022/07/03 03:46:57;;;;;;;4.50;2.30;;;;;;101128.11;;;;104398;1315;35098;-36
2022/07/03 03:49:29;;;;;;;5.50;2.10;;;;;;101127.98;;;;104422;1316;35233;-36
2022/07/03 03:52:02;;;;;;;3.70;2.00;;;;;;101126.24;;;;104450;1317;33637;-36
2022/07/03 03:54:34;;;;;;;3.80;2.00;;;;;;101122.31;;;;104426;1313;33884;-36
2022/07/03 03:57:22;;;;;;;4.00;2.20;;;;;;101122.51;;;;104485;1313;33726;-36
2022/07/03 03:59:57;;;;;;;4.90;2.00;;;;;;101124.96;;;;104433;1310;35242;-36
2022/07/03 04:02:29;;;;;;;4.50;2.00;;;;;;101129.23;;;;104383;1316;35661;-36
2022/07/03 04:05:02;;;;;;;3.90;2.00;;;;;;101120.98;;;;104453;1316;36110;-36
2022/07/03 04:07:35;;;;;;;5.20;2.00;;;;;;101117.89;;;;104488;1314;33881;-36
2022/07/03 04:10:09;;;;;;;4.40;2.10;;;;;;101119.79;;;;104441;1316;35056;-36
2022/07/03 04:12:42;;;;;;;4.10;2.30;;;;;;101120.20;;;;104440;1316;33965;-36
2022/07/03 04:15:14;;;;;;;3.90;2.00;;;;;;101120.97;;;;104443;1316;33912;-36
2022/07/03 04:17:51;;;;;;;5.20;2.10;;;;;;101124.44;;;;104429;1313;34153;-36
2022/07/03 04:20:26;;;;;;;4.60;1.70;;;;;;101129.55;;;;104420;1311;35204;-36
2022/07/03 04:22:58;;;;;;;3.70;1.80;;;;;;101129.30;;;;104371;1316;35108;-36
2022/07/03 04:25:31;;;;;;;4.10;2.00;;;;;;101123.98;;;;104394;1313;34263;-36
2022/07/03 04:28:04;;;;;;;6.80;2.20;;;;;;101120.56;;;;104363;1318;35851;-36
2022/07/03 04:30:35;;;;;;;;;;;;;;101123.55;;;;104120;1314;349041;-36
2022/07/03 04:33:08;;;;;;;4.70;2.20;;;;;;101127.57;;;;104365;1316;33330;-36
2022/07/03 04:35:40;;;;;;;4.30;2.00;;;;;;101122.01;;;;104279;1314;34428;-36
2022/07/03 04:38:13;;;;;;;4.90;1.80;;;;;;101121.79;;;;104352;1314;33654;-36
2022/07/03 04:40:47;;;;;;;4.00;1.70;;;;;;101121.80;;;;104357;1315;35274;-36
2022/07/03 04:43:20;;;;;;;5.10;1.90;;;;;;101120.48;;;;104231;1316;33703;-36
2022/07/03 04:45:52;;;;;;;3.80;1.80;;;;;;101113.70;;;;104361;1318;33927;-36
2022/07/03 04:48:25;;;;;;;5.60;1.80;;;;;;101114.24;;;;104371;1314;35240;-36
2022/07/03 04:50:57;;;;;;;4.50;1.80;;;;;;101113.48;;;;104362;1318;35963;-36
2022/07/03 04:53:30;;;;;;;4.40;1.80;;;;;;101115.27;;;;104354;1314;33645;-36
2022/07/03 04:56:02;;;;;;;4.10;1.70;;;;;;101119.89;;;;104350;1310;33952;-36
2022/07/03 04:58:35;;;;;;;4.40;1.80;;;;;;101122.54;;;;104327;1317;35301;-36
2022/07/03 05:01:07;;;;;;;3.10;1.60;;;;;;101109.27;;;;104327;1314;35913;-36
2022/07/03 05:03:40;;;;;;;3.80;1.70;;;;;;101108.23;;;;104342;1314;35253;-36
2022/07/03 05:06:13;;;;;;;3.60;1.60;;;;;;101108.88;;;;104339;1317;33614;-36
2022/07/03 05:08:46;;;;;;;4.50;1.70;;;;;;101111.56;;;;104365;1313;33301;-36
2022/07/03 05:11:19;;;;;;;4.70;1.80;;;;;;101113.52;;;;104322;1318;35660;-36
2022/07/03 05:13:51;;;;;;;4.00;1.60;;;;;;101113.11;;;;104333;1313;34569;-36
2022/07/03 05:16:23;;;;;;;3.70;1.60;;;;;;101117.15;;;;104349;1318;33575;-36
2022/07/03 05:18:56;;;;;;;4.00;1.50;;;;;;101122.23;;;;104338;1318;33794;-36
2022/07/03 05:21:29;;;;;;;2.70;1.40;;;;;;101125.02;;;;104373;1313;34977;-36
2022/07/03 05:24:01;;;;;;;4.00;1.60;;;;;;101124.76;;;;104427;1311;33650;-36
2022/07/03 05:26:33;;;;;;;3.50;1.70;;;;;;101131.67;;;;104422;1311;35211;-36
2022/07/03 05:29:05;;;;;;;4.60;1.50;;;;;;101128.85;;;;104420;1316;33329;-36
2022/07/03 05:31:39;;;;;;;3.20;1.60;;;;;;101127.96;;;;104419;1316;34404;-36
2022/07/03 05:34:11;;;;;;;3.70;1.50;;;;;;101128.80;;;;104397;1316;33614;-36
2022/07/03 05:36:44;;;;;;;3.70;1.70;;;;;;101122.80;;;;104428;1312;34710;-36
2022/07/03 05:39:35;;;;;;;2.90;1.40;;;;;;101122.60;;;;104428;1314;33767;-36
2022/07/03 05:42:09;;;;;;;4.10;1.70;;;;;;101125.80;;;;104452;1317;35858;-35
2022/07/03 05:44:41;;;;;;;4.40;1.60;;;;;;101123.30;;;;104444;1314;33745;-35
2022/07/03 05:47:14;;;;;;;4.90;1.50;;;;;;101113.08;;;;104415;1316;34713;-36
2022/07/03 05:49:47;;;;;;;3.70;1.40;;;;;;101107.23;;;;104444;1311;34663;-36
2022/07/03 05:52:20;;;;;;;3.20;1.50;;;;;;101108.42;;;;104461;1310;35078;-36
2022/07/03 05:54:53;;;;;;;3.10;1.30;;;;;;101114.52;;;;104428;1312;35793;-36
2022/07/03 05:57:25;;;;;;;3.20;1.50;;;;;;101115.15;;;;104444;1315;33684;-36
2022/07/03 05:59:57;;;;;;;3.10;1.40;;;;;;101115.77;;;;104418;1311;34554;-36
2022/07/03 06:02:30;;;;;;;3.70;1.50;;;;;;101114.40;;;;104427;1316;34417;-36
2022/07/03 06:05:02;;;;;;;3.70;1.20;;;;;;101120.09;;;;104435;1313;35298;-36
2022/07/03 06:07:37;;;;;;;3.70;1.50;;;;;;101119.44;;;;104437;1316;33582;-36
2022/07/03 06:10:11;;;;;;;4.10;1.70;;;;;;101113.34;;;;104440;1312;35352;-36
2022/07/03 06:12:44;;;;;;;3.50;1.40;;;;;;101112.84;;;;104447;1314;33984;-37
2022/07/03 06:15:16;;;;;;;3.30;1.60;;;;;;101118.69;;;;104504;1314;33966;-36
2022/07/03 06:17:49;;;;;;;3.50;1.50;;;;;;101123.20;;;;104519;1316;34174;-36
2022/07/03 06:20:20;;;;;;;;;;;;;;101129.52;;;;104516;1312;33378;-36
2022/07/03 06:22:53;;;;;;;3.30;1.30;;;;;;101130.94;;;;104486;1314;35240;-36
2022/07/03 06:25:26;;;;;;;2.60;1.20;;;;;;101135.71;;;;104532;1315;34354;-36
2022/07/03 06:27:58;;;;;;;4.00;1.10;;;;;;101132.02;;;;104514;1315;35304;-36
2022/07/03 06:30:31;;;;;;;4.10;1.30;;;;;;101136.77;;;;104522;1314;35355;-36
2022/07/03 06:33:03;;;;;;;3.40;1.30;;;;;;101132.83;;;;104518;1317;35055;-35
2022/07/03 06:35:35;;;;;;;4.30;1.50;;;;;;101128.95;;;;104499;1316;35770;-35
2022/07/03 06:38:08;;;;;;;4.00;1.30;;;;;;101127.48;;;;104513;1313;33746;-35
2022/07/03 06:40:41;;;;;;;3.30;1.30;;;;;;101124.47;;;;104529;1312;34127;-35
2022/07/03 06:43:13;;;;;;;3.20;1.40;;;;;;101126.88;;;;104488;1315;35055;-35
2022/07/03 06:45:46;;;;;;;4.40;1.50;;;;;;101129.30;;;;104485;1316;34983;-35
2022/07/03 06:48:18;;;;;;;3.50;1.20;;;;;;101125.14;;;;104523;1312;34965;-35
2022/07/03 06:50:51;;;;;;;3.10;1.20;;;;;;101128.23;;;;104466;1309;35259;-35
2022/07/03 06:53:23;;;;;;;2.90;1.20;;;;;;101123.37;;;;104511;1314;33221;-35
2022/07/03 06:55:55;;;;;;;3.20;1.20;;;;;;101123.55;;;;104489;1316;35611;-35
2022/07/03 06:58:27;;;;;;;3.80;1.10;;;;;;101125.15;;;;104509;1312;33652;-35
2022/07/03 07:01:00;;;;;;;3.90;1.40;;;;;;101113.23;;;;104487;1314;35306;-35
2022/07/03 07:03:32;;;;;;;2.30;1.20;;;;;;101107.77;;;;104495;1317;35384;-35
2022/07/03 07:06:06;;;;;;;3.30;1.20;;;;;;101102.73;;;;104522;1310;33516;-35
2022/07/03 07:08:39;;;;;;;3.10;1.30;;;;;;101094.98;;;;104579;1313;33631;-35
2022/07/03 07:11:11;;;;;;;4.20;1.40;;;;;;101089.04;;;;104517;1314;35482;-35
2022/07/03 07:13:44;;;;;;;5.50;1.40;;;;;;101082.73;;;;104526;1314;34459;-35
2022/07/03 07:16:16;;;;;;;3.70;1.20;;;;;;101086.41;;;;104537;1311;35407;-35
2022/07/03 07:18:49;;;;;;;2.30;1.10;;;;;;101084.40;;;;104469;1316;35277;-35
2022/07/03 07:21:22;;;;;;;3.90;1.20;;;;;;101083.02;;;;104477;1311;34565;-35
2022/07/03 07:23:54;;;;;;;2.20;1.10;;;;;;101080.42;;;;104546;1314;34417;-35
2022/07/03 07:26:26;;;;;;;3.50;1.40;;;;;;101077.27;;;;104506;1316;35166;-35
2022/07/03 07:28:59;;;;;;;2.30;1.00;;;;;;101076.41;;;;104535;1305;34048;-35
2022/07/03 07:31:31;;;;;;;3.50;1.10;;;;;;101076.10;;;;104480;1308;34328;-35
2022/07/03 07:34:04;;;;;;;3.70;1.30;;;;;;101072.73;;;;104534;1310;34007;-35
2022/07/03 07:36:37;;;;;;;3.90;1.40;;;;;;101069.61;;;;104419;1316;35256;-35
2022/07/03 07:39:10;;;;;;;2.30;1.00;;;;;;101070.88;;;;104450;1315;34283;-35
2022/07/03 07:41:43;;;;;;;3.60;1.60;;;;;;101070.23;;;;104566;1311;34243;-35
2022/07/03 07:44:15;;;;;;;3.20;1.10;;;;;;101068.98;;;;104492;1314;33453;-35
2022/07/03 07:46:48;;;;;;;3.70;1.20;;;;;;101066.66;;;;104523;1314;33070;-35
2022/07/03 07:49:20;;;;;;;4.20;1.30;;;;;;101066.27;;;;104537;1312;33675;-35
2022/07/03 07:51:52;;;;;;;3.20;1.10;;;;;;101063.43;;;;104528;1313;35469;-35
2022/07/03 07:54:25;;;;;;;2.80;0.90;;;;;;101067.20;;;;104497;1310;33954;-35
2022/07/03 07:56:57;;;;;;;3.70;1.40;;;;;;101064.69;;;;104529;1314;35290;-35
2022/07/03 07:59:29;;;;;;;3.20;1.20;;;;;;101059.25;;;;104489;1314;34177;-35
2022/07/03 08:07:53;;;;;;;2.70;1.10;;;;;;101055.90;;;;103997;1322;35913;-35
2022/07/03 08:10:26;;;;;;;3.10;1.40;;;;;;101055.46;;;;104295;1317;33590;-35
2022/07/03 08:12:58;;;;;;;2.70;1.00;;;;;;101054.11;;;;104529;1310;34041;-35
2022/07/03 08:15:31;;;;;;;2.80;1.20;;;;;;101054.16;;;;104538;1316;34463;-35
2022/07/03 08:18:03;;;;;;;3.40;1.10;;;;;;101055.96;;;;104506;1314;35482;-35
2022/07/03 08:20:38;;;;;;;3.60;1.20;;;;;;101052.69;;;;104465;1315;35825;-35
2022/07/03 08:23:10;;;;;;;3.70;1.40;;;;;;101050.31;;;;104558;1308;35262;-35
2022/07/03 08:25:43;;;;;;;2.50;1.00;;;;;;101050.43;;;;104514;1316;36667;-35
2022/07/03 08:28:15;;;;;;;3.10;1.20;;;;;;101047.86;;;;104530;1312;35705;-35
2022/07/03 08:30:48;;;;;;;3.30;1.10;;;;;;101045.14;;;;104461;1314;33426;-35
2022/07/03 08:33:21;;;;;;;2.80;1.10;;;;;;101045.16;;;;104512;1314;35063;-35
2022/07/03 08:35:53;;;;;;;3.80;1.60;;;;;;101039.17;;;;104525;1312;34203;-35
2022/07/03 08:38:30;;;;;;;4.10;2.10;;;;;;101040.25;;;;104513;1308;34171;-35
2022/07/03 08:41:05;;;;;;;4.20;2.20;;;;;;101034.91;;;;104561;1316;35435;-35
2022/07/03 08:43:38;;;;;;;4.60;2.10;;;;;;101031.65;;;;104517;1314;34122;-35
2022/07/03 08:46:10;;;;;;;;;;;;;;101027.07;;;;104487;1312;35956;-35
2022/07/03 08:48:43;;;;;;;5.20;2.20;;;;;;101026.62;;;;104531;1312;33538;-35
2022/07/03 08:51:16;;;;;;;4.00;2.10;;;;;;101026.42;;;;104503;1310;35363;-35
2022/07/03 08:53:47;;;;;;;;;;;;;;101024.90;;;;104532;1311;34114;-35
2022/07/03 08:56:19;;;;;;;6.10;2.40;;;;;;101022.13;;;;104480;1312;35450;-35
2022/07/03 08:58:52;;;;;;;5.10;2.50;;;;;;101019.95;;;;104375;1314;32804;-36
2022/07/03 09:01:24;;;;;;;4.30;1.90;;;;;;101016.56;;;;104576;1312;33813;-37
2022/07/03 09:03:57;;;;;;;3.50;1.90;;;;;;101015.77;;;;104508;1316;33613;-37
2022/07/03 09:06:33;;;;;;;5.70;2.30;;;;;;101018.15;;;;104456;1316;35347;-37
2022/07/03 09:09:09;;;;;;;5.40;2.50;;;;;;101016.14;;;;104465;1312;33513;-37
2022/07/03 09:11:42;;;;;;;3.60;2.00;;;;;;101011.98;;;;104505;1312;35783;-37
2022/07/03 09:14:14;;;;;;;4.30;2.10;;;;;;101011.54;;;;104481;1314;34113;-37
2022/07/03 09:16:47;;;;;;;4.60;1.90;;;;;;101014.21;;;;104465;1313;35330;-38
2022/07/03 09:19:43;;;;;;;4.70;2.00;;;;;;101011.09;;;;104457;1316;35452;-38
2022/07/03 09:22:27;;;;;;;4.00;1.80;;;;;;101008.70;;;;104501;1312;36025;-37
2022/07/03 09:25:10;;;;;;;4.30;1.50;;;;;;101009.55;;;;104527;1316;33644;-38
2022/07/03 09:27:52;;;;;;;4.40;1.50;;;;;;101008.36;;;;104506;1316;36046;-37
2022/07/03 09:30:27;;;;;;;4.10;1.50;;;;;;101006.16;;;;104491;1316;33767;-37
2022/07/03 09:33:00;;;;;;;4.10;1.90;;;;;;101007.58;;;;104470;1313;35194;-38
2022/07/03 09:35:35;;;;;;;4.30;1.50;;;;;;101005.04;;;;104449;1312;34514;-38
2022/07/03 09:38:08;;;;;;;3.20;1.50;;;;;;101005.83;;;;104469;1316;35867;-39
2022/07/03 09:40:54;;;;;;;3.80;1.80;;;;;;101004.02;;;;104471;1315;35249;-38
2022/07/03 09:43:33;;;;;;;3.90;1.60;;;;;;100996.12;;;;104489;1315;33761;-38
2022/07/03 09:46:06;;;;;;;2.50;1.20;;;;;;100998.15;;;;104510;1313;35053;-38
2022/07/03 09:48:40;;;;;;;3.70;1.20;;;;;;100997.73;;;;104474;1312;35683;-36
2022/07/03 09:51:17;;;;;;;4.40;1.50;;;;;;100996.26;;;;104600;1312;34414;-36
2022/07/03 09:53:54;;;;;;;3.80;1.40;;;;;;100988.23;;;;104592;1316;35308;-37
2022/07/03 09:56:28;;;;;;;3.90;1.30;;;;;;100987.80;;;;104537;1315;33669;-37
2022/07/03 09:59:12;;;;;;;4.10;1.50;;;;;;100989.13;;;;104576;1315;36052;-37
2022/07/03 10:01:46;;;;;;;3.00;1.30;;;;;;100985.21;;;;104587;1312;34862;-37
2022/07/03 10:04:21;;;;;;;3.60;1.70;;;;;;100980.57;;;;104638;1317;33641;-37
2022/07/03 10:06:56;;;;;;;3.00;1.60;;;;;;100978.52;;;;104623;1308;34294;-37
2022/07/03 10:09:31;;;;;;;3.40;1.50;;;;;;100978.30;;;;104609;1317;34083;-37
2022/07/03 10:12:10;;;;;;;3.50;1.30;;;;;;100978.20;;;;104581;1308;33278;-37
2022/07/03 10:14:43;;;;;;;3.20;1.40;;;;;;100974.48;;;;104657;1313;34879;-37
2022/07/03 10:17:15;;;;;;;3.80;1.50;;;;;;100975.85;;;;104618;1311;32736;-37
2022/07/03 10:19:47;;;;;;;3.10;1.20;;;;;;100972.77;;;;104559;1315;33677;-37
2022/07/03 10:22:24;;;;;;;3.00;1.30;;;;;;100970.54;;;;104569;1308;35413;-37
2022/07/03 10:24:57;;;;;;;3.50;1.50;;;;;;100969.48;;;;104597;1316;35902;-37
2022/07/03 10:27:30;;;;;;;2.80;1.10;;;;;;100967.69;;;;104501;1311;35186;-42
2022/07/03 10:30:04;;;;;;;3.30;1.30;;;;;;100963.42;;;;104404;1315;34528;-42
2022/07/03 10:32:38;;;;;;;2.80;1.20;;;;;;100957.30;;;;104427;1315;34216;-42
2022/07/03 10:35:13;;;;;;;3.60;1.60;;;;;;100955.25;;;;104440;1314;36104;-42
2022/07/03 10:37:59;;;;;;;3.00;1.20;;;;;;100954.56;;;;104438;1315;33606;-43
2022/07/03 10:46:27;;;;;;;3.10;1.20;;;;;;100947.00;;;;104447;1312;35623;-43
2022/07/03 10:49:06;;;;;;;4.30;1.20;;;;;;100944.24;;;;104452;1316;35118;-43
2022/07/03 10:51:56;;;;;;;3.50;1.20;;;;;;100942.05;;;;104424;1316;35408;-42
2022/07/03 10:54:31;;;;;;;2.90;1.20;;;;;;100932.61;;;;104400;1315;34318;-42
2022/07/03 10:57:27;;;;;;;4.00;1.40;;;;;;100932.11;;;;104420;1312;35275;-43
2022/07/03 11:00:19;;;;;;;3.40;1.00;;;;;;100929.92;;;;104450;1312;32896;-43
2022/07/03 11:02:56;;;;;;;2.70;1.30;;;;;;100922.71;;;;104421;1308;34255;-42
2022/07/03 11:05:42;;;;;;;3.00;1.20;;;;;;100922.96;;;;104457;1312;35537;-42
2022/07/03 11:08:16;;;;;;;2.80;1.20;;;;;;100922.67;;;;104396;1316;36043;-43
2022/07/03 11:11:54;;;;;;;3.40;1.30;;;;;;100923.09;;;;104437;1316;33712;-42
2022/07/03 11:14:20;;;;;;;3.60;1.20;;;;;;100917.63;;;;104423;1316;35349;-42
2022/07/03 11:17:19;;;;;;;3.10;1.30;;;;;;100917.20;;;;104409;1312;35791;-42
2022/07/03 11:22:53;;;;;;;2.70;1.30;;;;;;100907.05;;;;104416;1312;35784;-42
2022/07/03 11:25:27;;;;;;;2.20;1.10;;;;;;100907.72;;;;104406;1316;34318;-44
2022/07/03 11:27:59;;;;;;;3.20;1.30;;;;;;100903.56;;;;104430;1312;34419;-43
2022/07/03 11:30:32;;;;;;;2.40;1.30;;;;;;100902.25;;;;104403;1314;35470;-42
2022/07/03 11:33:08;;;;;;;3.10;1.20;;;;;;100899.88;;;;104425;1314;34633;-42
2022/07/03 11:35:56;;;;;;;3.10;1.40;;;;;;100900.34;;;;104440;1312;35956;-43
2022/07/03 11:38:38;;;;;;;2.40;1.20;;;;;;100895.36;;;;104446;1315;33904;-43
2022/07/03 11:41:30;;;;;;;2.50;1.30;;;;;;100885.08;;;;104310;1316;35360;-42
2022/07/03 11:44:05;;;;;;;2.20;1.30;;;;;;100884.85;;;;104427;1311;35063;-43
2022/07/03 11:46:40;;;;;;;2.20;1.10;;;;;;100889.08;;;;104434;1316;35565;-42
2022/07/03 11:49:14;;;;;;;3.50;1.30;;;;;;100889.50;;;;104447;1312;35312;-46
2022/07/03 11:52:00;;;;;;;2.50;1.20;;;;;;100887.45;;;;104417;1308;33948;-45
2022/07/03 11:54:53;;;;;;;2.30;1.10;;;;;;100884.73;;;;104447;1310;34058;-45
2022/07/03 11:57:26;;;;;;;2.20;1.20;;;;;;100880.02;;;;104402;1313;35390;-42
2022/07/03 12:00:08;;;;;;;2.80;1.20;;;;;;100879.48;;;;104401;1316;35746;-43
2022/07/03 12:02:53;;;;;;;3.30;1.30;;;;;;100877.21;;;;104433;1312;35591;-42
2022/07/03 12:05:25;;;;;;;2.70;1.20;;;;;;100869.45;;;;104429;1314;35475;-44
2022/07/03 12:08:08;;;;;;;2.80;1.50;;;;;;100870.02;;;;104429;1313;35389;-43
2022/07/03 12:10:44;;;;;;;2.70;1.10;;;;;;100867.32;;;;104413;1318;35211;-43
2022/07/03 12:13:27;;;;;;;3.70;1.40;;;;;;100866.63;;;;104450;1316;34608;-43
2022/07/03 12:16:06;;;;;;;3.10;1.50;;;;;;100862.88;;;;104391;1312;34499;-43
2022/07/03 12:18:55;;;;;;;3.60;1.30;;;;;;100863.59;;;;104412;1316;35778;-42
2022/07/03 12:21:32;;;;;;;3.70;1.40;;;;;;100862.29;;;;104393;1312;36351;-39
2022/07/03 12:24:12;;;;;;;3.20;1.50;;;;;;100859.88;;;;104431;1315;34135;-39
2022/07/03 12:26:45;;;;;;;2.90;1.50;;;;;;100860.16;;;;104423;1314;35714;-39
2022/07/03 12:29:19;;;;;;;4.00;1.50;;;;;;100857.14;;;;104207;1316;286822;-39
2022/07/03 12:31:52;;;;;;;4.90;1.60;;;;;;100858.16;;;;104435;1316;35983;-39
2022/07/03 12:34:25;;;;;;;4.60;1.70;;;;;;100855.52;;;;104441;1312;35629;-38
2022/07/03 12:37:02;;;;;;;3.60;1.40;;;;;;100857.94;;;;104400;1315;35178;-39
2022/07/03 12:39:49;;;;;;;4.40;1.50;;;;;;100857.59;;;;104429;1316;35188;-38
2022/07/03 12:42:23;;;;;;;3.00;1.30;;;;;;100854.45;;;;104433;1312;34451;-38
2022/07/03 12:45:03;;;;;;;2.80;1.30;;;;;;100855.56;;;;104432;1316;35219;-43
2022/07/03 12:47:35;;;;;;;3.00;1.40;;;;;;100858.48;;;;104437;1314;35872;-44
2022/07/03 12:50:11;;;;;;;4.20;1.50;;;;;;100852.56;;;;104442;1313;35204;-42
2022/07/03 12:52:57;;;;;;;3.40;1.50;;;;;;100852.29;;;;104466;1316;35380;-42
2022/07/03 12:55:31;;;;;;;3.90;1.70;;;;;;100849.19;;;;104581;1314;34158;-37
2022/07/03 13:01:26;;;;;;;3.30;1.50;;;;;;100845.33;;;;104575;1312;36192;-37
2022/07/03 13:04:00;;;;;;;3.10;1.50;;;;;;100847.23;;;;104544;1311;33576;-37
2022/07/03 13:06:32;;;;;;;4.00;1.70;;;;;;100843.16;;;;104608;1314;35537;-37
2022/07/03 13:09:07;;;;;;;3.30;1.60;;;;;;100839.27;;;;104607;1312;33552;-37
2022/07/03 13:11:41;;;;;;;3.70;1.30;;;;;;100837.19;;;;104589;1310;34424;-37
2022/07/03 13:14:17;;;;;;;3.40;1.30;;;;;;100832.33;;;;104590;1315;35481;-37
2022/07/03 13:16:52;;;;;;;3.60;1.60;;;;;;100831.19;;;;104604;1312;31450;-37
2022/07/03 13:19:28;;;;;;;3.50;1.50;;;;;;100832.20;;;;104646;1316;35214;-37
2022/07/03 13:22:01;;;;;;;3.40;1.40;;;;;;100827.38;;;;104556;1316;34476;-37
2022/07/03 13:24:33;;;;;;;4.20;1.50;;;;;;100824.45;;;;104590;1313;34021;-37
2022/07/03 13:27:06;;;;;;;3.60;1.50;;;;;;100820.84;;;;104638;1311;35821;-37
2022/07/03 13:29:39;;;;;;;5.30;1.50;;;;;;100813.65;;;;104557;1312;34412;-37
2022/07/03 13:32:12;;;;;;;3.60;1.70;;;;;;100813.88;;;;104574;1308;34098;-37
2022/07/03 13:34:45;;;;;;;4.30;1.50;;;;;;100805.45;;;;104576;1308;34143;-37
2022/07/03 13:37:17;;;;;;;3.60;1.50;;;;;;100801.42;;;;104622;1315;35523;-37
2022/07/03 13:39:50;;;;;;;3.60;1.60;;;;;;100794.78;;;;104595;1312;34642;-37
2022/07/03 13:42:23;;;;;;;5.10;1.90;;;;;;100788.92;;;;104607;1316;34393;-37
2022/07/03 13:44:56;;;;;;;3.50;1.70;;;;;;100786.83;;;;104642;1314;34463;-37
2022/07/03 13:47:28;;;;;;;4.00;1.70;;;;;;100785.63;;;;104648;1315;34573;-37
2022/07/03 13:50:02;;;;;;;4.00;1.90;;;;;;100788.23;;;;104463;1311;35365;-40
2022/07/03 13:52:34;;;;;;;;;;;;;;100786.28;;;;104481;1317;33558;-39